createdAt,value
2022-11-13T00:01:42.249Z,9.77
2022-11-13T00:04:10.816Z,9.79
2022-11-13T00:06:38.182Z,9.82
2022-11-13T00:09:05.599Z,9.72
2022-11-13T00:11:32.966Z,9.81
2022-11-13T00:14:00.213Z,9.82
2022-11-13T00:16:27.478Z,9.74
2022-11-13T00:18:55.563Z,9.81
2022-11-13T00:21:27.178Z,9.81
2022-11-13T00:23:55.995Z,9.74
2022-11-13T00:26:30.412Z,9.65
2022-11-13T00:29:03.606Z,9.74
2022-11-13T00:31:31.312Z,9.79
2022-11-13T00:36:47.743Z,9.71
2022-11-13T00:39:15.077Z,9.66
2022-11-13T00:41:42.842Z,9.72
2022-11-13T00:44:10.135Z,9.66
2022-11-13T00:46:37.454Z,9.71
2022-11-13T00:49:05.018Z,9.74
2022-11-13T00:51:33.191Z,9.77
2022-11-13T00:54:00.494Z,9.68
2022-11-13T00:56:28.107Z,9.77
2022-11-13T00:58:56.176Z,9.75
2022-11-13T01:01:23.580Z,9.75
2022-11-13T01:03:50.980Z,9.70
2022-11-13T01:06:27.164Z,9.81
2022-11-13T01:08:58.473Z,9.84
2022-11-13T01:11:30.783Z,9.80
2022-11-13T01:13:58.638Z,9.68
2022-11-13T01:16:28.491Z,9.76
2022-11-13T01:18:57.016Z,9.72
2022-11-13T01:21:28.758Z,9.75
2022-11-13T01:23:56.626Z,9.77
2022-11-13T01:26:31.036Z,9.66
2022-11-13T01:29:00.454Z,9.70
2022-11-13T01:31:30.835Z,9.74
2022-11-13T01:33:58.871Z,9.74
2022-11-13T01:36:29.701Z,9.64
2022-11-13T01:38:57.775Z,9.66
2022-11-13T01:41:35.167Z,9.70
2022-11-13T01:44:02.474Z,9.76
2022-11-13T01:46:44.212Z,9.74
2022-11-13T01:49:11.244Z,9.83
2022-11-13T01:52:14.234Z,9.76
2022-11-13T01:55:13.554Z,9.62
2022-11-13T01:57:41.650Z,9.69
2022-11-13T02:00:12.314Z,9.71
2022-11-13T02:02:39.531Z,9.61
2022-11-13T02:05:09.210Z,9.51
2022-11-13T02:07:38.458Z,9.65
2022-11-13T02:10:06.646Z,9.69
2022-11-13T02:12:46.519Z,9.60
2022-11-13T02:15:14.185Z,9.64
2022-11-13T02:17:59.067Z,9.62
2022-11-13T02:20:59.964Z,9.60
2022-11-13T02:23:54.435Z,9.66
2022-11-13T02:26:25.056Z,9.52
2022-11-13T02:28:52.423Z,9.63
2022-11-13T02:31:20.495Z,9.78
2022-11-13T02:33:47.776Z,9.69
2022-11-13T02:36:16.582Z,9.79
2022-11-13T02:38:44.711Z,9.63
2022-11-13T02:41:11.961Z,9.64
2022-11-13T02:43:39.231Z,9.71
2022-11-13T02:46:06.874Z,9.70
2022-11-13T02:48:34.146Z,9.75
2022-11-13T02:51:01.478Z,9.69
2022-11-13T02:53:28.766Z,9.62
2022-11-13T02:55:56.039Z,9.52
2022-11-13T02:58:23.349Z,9.63
2022-11-13T03:00:50.659Z,9.71
2022-11-13T03:03:29.241Z,9.70
2022-11-13T03:06:06.220Z,9.54
2022-11-13T03:08:37.015Z,9.75
2022-11-13T03:11:11.510Z,9.65
2022-11-13T03:13:39.439Z,9.61
2022-11-13T03:16:16.934Z,9.66
2022-11-13T03:18:44.287Z,9.68
2022-11-13T03:21:16.362Z,9.67
2022-11-13T03:23:45.341Z,9.70
2022-11-13T03:26:17.104Z,9.70
2022-11-13T03:28:44.412Z,9.70
2022-11-13T03:31:12.245Z,9.79
2022-11-13T03:33:40.412Z,9.65
2022-11-13T03:36:08.585Z,9.68
2022-11-13T03:38:36.030Z,9.69
2022-11-13T03:41:03.885Z,9.70
2022-11-13T03:43:31.675Z,9.66
2022-11-13T03:45:58.927Z,9.60
2022-11-13T03:48:26.553Z,9.68
2022-11-13T03:50:55.812Z,9.72
2022-11-13T03:53:23.135Z,9.70
2022-11-13T03:55:51.245Z,9.62
2022-11-13T03:58:19.667Z,9.56
2022-11-13T04:00:48.363Z,9.54
2022-11-13T04:03:16.061Z,9.64
2022-11-13T04:05:43.836Z,9.64
2022-11-13T04:08:11.194Z,9.55
2022-11-13T04:10:43.367Z,9.59
2022-11-13T04:13:10.967Z,9.57
2022-11-13T04:15:38.402Z,9.67
2022-11-13T04:18:05.951Z,9.71
2022-11-13T04:20:33.309Z,9.68
2022-11-13T04:23:00.674Z,9.64
2022-11-13T04:25:27.988Z,9.55
2022-11-13T04:27:55.637Z,9.53
2022-11-13T04:30:22.939Z,9.51
2022-11-13T04:32:50.230Z,9.38
2022-11-13T04:35:17.547Z,9.55
2022-11-13T04:37:44.812Z,9.54
2022-11-13T04:40:12.468Z,9.54
2022-11-13T04:42:51.752Z,9.52
2022-11-13T04:45:24.204Z,9.53
2022-11-13T04:47:52.139Z,9.48
2022-11-13T04:50:19.665Z,9.59
2022-11-13T04:52:47.435Z,9.51
2022-11-13T04:55:15.284Z,9.44
2022-11-13T04:57:42.970Z,9.47
2022-11-13T05:00:13.185Z,9.54
2022-11-13T05:02:40.536Z,9.45
2022-11-13T05:05:08.859Z,9.34
2022-11-13T05:07:38.782Z,9.44
2022-11-13T05:10:06.748Z,9.45
2022-11-13T05:12:35.478Z,9.39
2022-11-13T05:15:02.813Z,9.36
2022-11-13T05:17:30.220Z,9.47
2022-11-13T05:19:57.516Z,9.44
2022-11-13T05:22:24.851Z,9.56
2022-11-13T05:24:52.102Z,9.48
2022-11-13T05:27:19.377Z,9.49
2022-11-13T05:29:46.687Z,9.45
2022-11-13T05:32:13.969Z,9.46
2022-11-13T05:34:41.266Z,9.29
2022-11-13T05:37:08.650Z,9.42
2022-11-13T05:39:35.934Z,9.48
2022-11-13T05:42:03.287Z,9.38
2022-11-13T05:44:30.562Z,9.36
2022-11-13T05:46:57.883Z,9.33
2022-11-13T05:49:25.143Z,9.41
2022-11-13T05:51:55.476Z,9.44
2022-11-13T05:54:22.726Z,9.47
2022-11-13T05:56:49.997Z,9.38
2022-11-13T05:59:17.299Z,9.51
2022-11-13T06:01:44.579Z,9.49
2022-11-13T06:04:11.865Z,9.48
2022-11-13T06:06:39.253Z,9.38
2022-11-13T06:09:07.412Z,9.45
2022-11-13T06:11:34.665Z,9.53
2022-11-13T06:14:04.269Z,9.47
2022-11-13T06:16:38.280Z,9.44
2022-11-13T06:19:10.180Z,9.54
2022-11-13T06:21:41.112Z,9.51
2022-11-13T06:24:12.767Z,9.52
2022-11-13T06:26:40.893Z,9.49
2022-11-13T06:29:12.275Z,9.54
2022-11-13T06:31:39.579Z,9.45
2022-11-13T06:34:06.923Z,9.38
2022-11-13T06:36:37.419Z,9.53
2022-11-13T06:39:11.620Z,9.45
2022-11-13T06:41:41.369Z,9.47
2022-11-13T06:44:08.851Z,9.54
2022-11-13T06:46:36.134Z,9.48
2022-11-13T06:49:03.416Z,9.53
2022-11-13T06:51:31.975Z,9.37
2022-11-13T06:53:59.301Z,9.41
2022-11-13T06:56:26.840Z,9.45
2022-11-13T06:58:57.124Z,9.50
2022-11-13T07:01:26.755Z,9.45
2022-11-13T07:03:54.532Z,9.39
2022-11-13T07:06:24.631Z,9.41
2022-11-13T07:08:52.507Z,9.40
2022-11-13T07:11:23.504Z,9.46
2022-11-13T07:13:51.145Z,9.54
2022-11-13T07:16:18.807Z,9.42
2022-11-13T07:18:54.547Z,9.44
2022-11-13T07:21:23.420Z,9.51
2022-11-13T07:23:51.091Z,9.44
2022-11-13T07:26:19.026Z,9.49
2022-11-13T07:28:47.623Z,9.60
2022-11-13T07:31:17.926Z,9.59
2022-11-13T07:33:49.313Z,9.50
2022-11-13T07:36:16.886Z,9.50
2022-11-13T07:38:44.358Z,9.41
2022-11-13T07:41:16.090Z,9.48
2022-11-13T07:43:43.340Z,9.52
2022-11-13T07:46:11.131Z,9.63
2022-11-13T07:48:38.419Z,9.48
2022-11-13T07:51:05.990Z,9.42
2022-11-13T07:53:33.270Z,9.50
2022-11-13T07:56:05.226Z,9.51
2022-11-13T07:58:32.790Z,9.38
2022-11-13T08:01:07.354Z,9.51
2022-11-13T08:03:34.926Z,9.54
2022-11-13T08:06:06.748Z,9.50
2022-11-13T08:08:35.088Z,9.51
2022-11-13T08:11:09.304Z,9.61
2022-11-13T08:13:38.073Z,9.56
2022-11-13T08:16:05.986Z,9.54
2022-11-13T08:18:34.630Z,9.50
2022-11-13T08:21:08.074Z,9.49
2022-11-13T08:23:41.567Z,9.45
2022-11-13T08:26:10.636Z,9.63
2022-11-13T08:28:37.913Z,9.68
2022-11-13T08:31:12.234Z,9.66
2022-11-13T08:33:40.548Z,9.70
2022-11-13T08:36:09.983Z,9.68
2022-11-13T08:38:37.583Z,9.67
2022-11-13T08:41:09.318Z,9.65
2022-11-13T08:43:37.114Z,9.67
2022-11-13T08:46:04.430Z,9.72
2022-11-13T08:48:32.148Z,9.85
2022-11-13T08:50:59.615Z,9.83
2022-11-13T08:53:26.928Z,9.79
2022-11-13T08:55:54.193Z,9.79
2022-11-13T08:58:21.491Z,9.89
2022-11-13T09:00:48.767Z,9.83
2022-11-13T09:03:16.068Z,9.77
2022-11-13T09:05:43.377Z,9.94
2022-11-13T09:08:10.934Z,9.84
2022-11-13T09:10:38.280Z,9.90
2022-11-13T09:13:11.660Z,9.92
2022-11-13T09:15:40.534Z,9.97
2022-11-13T09:18:09.570Z,9.85
2022-11-13T09:20:37.778Z,9.93
2022-11-13T09:23:09.198Z,9.94
2022-11-13T09:25:38.204Z,9.89
2022-11-13T09:28:07.253Z,9.94
2022-11-13T09:30:34.929Z,9.82
2022-11-13T09:33:02.515Z,9.86
2022-11-13T09:35:35.199Z,9.77
2022-11-13T09:38:14.734Z,9.95
2022-11-13T09:40:59.783Z,9.93
2022-11-13T09:43:58.388Z,9.96
2022-11-13T09:47:21.510Z,10.03
2022-11-13T09:50:16.704Z,10.03
2022-11-13T09:52:45.903Z,10.05
2022-11-13T09:55:23.451Z,10.13
2022-11-13T09:58:14.610Z,10.10
2022-11-13T10:00:42.131Z,10.11
2022-11-13T10:07:32.661Z,10.05
2022-11-13T10:10:37.163Z,10.20
2022-11-13T10:13:05.879Z,10.15
2022-11-13T10:15:34.059Z,10.23
2022-11-13T10:18:20.099Z,10.03
2022-11-13T10:20:58.022Z,10.12
2022-11-13T10:23:34.122Z,10.12
2022-11-13T10:26:24.815Z,10.22
2022-11-13T10:29:11.502Z,10.27
2022-11-13T10:31:51.507Z,10.38
2022-11-13T10:34:20.054Z,10.12
2022-11-13T10:37:09.069Z,10.29
2022-11-13T10:39:45.698Z,10.13
2022-11-13T10:42:31.926Z,10.24
2022-11-13T10:45:01.182Z,10.25
2022-11-13T10:50:32.495Z,10.33
2022-11-13T10:53:00.116Z,10.36
2022-11-13T10:55:41.254Z,10.30
2022-11-13T10:58:18.312Z,10.34
2022-11-13T11:00:49.728Z,10.23
2022-11-13T11:03:24.475Z,10.34
2022-11-13T11:06:04.921Z,10.21
2022-11-13T11:08:36.010Z,10.30
2022-11-13T11:11:36.031Z,10.30
2022-11-13T11:14:34.822Z,10.27
2022-11-13T11:17:04.180Z,10.28
2022-11-13T11:19:37.086Z,10.40
2022-11-13T11:22:22.288Z,10.46
2022-11-13T11:25:26.118Z,10.48
2022-11-13T11:28:15.828Z,10.48
2022-11-13T11:31:00.187Z,10.30
2022-11-13T11:34:02.311Z,10.31
2022-11-13T11:37:16.609Z,10.29
2022-11-13T11:40:22.203Z,10.38
2022-11-13T11:43:51.426Z,10.29
2022-11-13T11:46:24.538Z,10.37
2022-11-13T11:48:52.368Z,10.38
2022-11-13T11:51:48.996Z,10.28
2022-11-13T11:55:00.942Z,10.27
2022-11-13T11:58:14.912Z,10.26
2022-11-13T12:01:23.282Z,10.30
2022-11-13T12:04:59.282Z,10.40
2022-11-13T12:08:30.907Z,10.38
2022-11-13T12:11:38.207Z,10.24
2022-11-13T12:14:35.594Z,10.33
2022-11-13T12:17:48.442Z,10.22
2022-11-13T12:20:55.215Z,10.24
2022-11-13T12:24:02.928Z,10.37
2022-11-13T12:27:31.387Z,10.37
2022-11-13T12:35:32.412Z,10.12
2022-11-13T12:38:36.578Z,10.15
2022-11-13T12:41:49.016Z,10.18
2022-11-13T12:44:30.739Z,10.18
2022-11-13T12:47:01.562Z,10.23
2022-11-13T12:49:35.690Z,10.33
2022-11-13T12:52:24.058Z,10.33
2022-11-13T12:54:52.378Z,10.38
2022-11-13T12:57:30.105Z,10.35
2022-11-13T13:00:13.364Z,10.29
2022-11-13T13:03:27.250Z,10.18
2022-11-13T13:06:18.776Z,10.21
2022-11-13T13:09:46.410Z,9.99
2022-11-13T13:13:23.688Z,10.18
2022-11-13T13:16:02.815Z,10.08
2022-11-13T13:18:40.621Z,10.16
2022-11-13T13:21:17.738Z,10.22
2022-11-13T13:23:53.391Z,10.35
2022-11-13T13:26:30.002Z,10.25
2022-11-13T13:29:18.351Z,10.26
2022-11-13T13:32:21.271Z,10.28
2022-11-13T13:35:30.515Z,10.33
2022-11-13T13:38:52.227Z,10.38
2022-11-13T13:41:54.350Z,10.50
2022-11-13T13:45:38.431Z,10.24
2022-11-13T13:48:13.603Z,10.34
2022-11-13T13:50:47.204Z,10.23
2022-11-13T13:53:27.591Z,10.37
2022-11-13T13:55:59.347Z,10.36
2022-11-13T13:58:35.004Z,10.40
2022-11-13T14:01:18.963Z,10.33
2022-11-13T14:03:47.991Z,10.21
2022-11-13T14:06:24.186Z,10.25
2022-11-13T14:08:51.570Z,10.42
2022-11-13T14:11:27.213Z,10.49
2022-11-13T14:13:54.646Z,10.45
2022-11-13T14:16:22.160Z,10.43
2022-11-13T14:18:49.519Z,10.46
2022-11-13T14:21:24.921Z,10.36
2022-11-13T14:23:53.606Z,10.27
2022-11-13T14:26:21.232Z,10.24
2022-11-13T14:29:01.881Z,10.26
2022-11-13T14:31:34.144Z,10.16
2022-11-13T14:34:12.023Z,10.19
2022-11-13T14:36:40.873Z,10.27
2022-11-13T14:39:32.943Z,10.20
2022-11-13T14:42:01.142Z,10.04
2022-11-13T14:44:34.610Z,10.09
2022-11-13T14:47:19.891Z,10.14
2022-11-13T14:49:47.213Z,10.19
2022-11-13T14:52:28.784Z,10.15
2022-11-13T14:55:15.332Z,10.16
2022-11-13T14:57:50.568Z,10.10
2022-11-13T15:00:28.102Z,10.05
2022-11-13T15:02:55.407Z,10.14
2022-11-13T15:05:23.054Z,10.23
2022-11-13T15:07:51.389Z,10.15
2022-11-13T15:10:24.318Z,10.07
2022-11-13T15:12:52.460Z,10.18
2022-11-13T15:15:30.168Z,9.99
2022-11-13T15:17:57.684Z,10.07
2022-11-13T15:20:30.976Z,10.07
2022-11-13T15:23:00.269Z,10.07
2022-11-13T15:25:27.953Z,10.09
2022-11-13T15:27:55.295Z,10.14
2022-11-13T15:30:22.582Z,10.16
2022-11-13T15:32:53.951Z,10.07
2022-11-13T15:35:21.526Z,10.16
2022-11-13T15:37:48.937Z,10.15
2022-11-13T15:40:17.767Z,10.23
2022-11-13T15:42:45.688Z,10.30
2022-11-13T15:45:17.478Z,10.24
2022-11-13T15:47:44.851Z,10.13
2022-11-13T15:50:14.474Z,10.29
2022-11-13T15:52:49.044Z,10.19
2022-11-13T15:55:34.587Z,10.20
2022-11-13T15:58:02.645Z,10.21
2022-11-13T16:00:30.181Z,10.20
2022-11-13T16:02:58.039Z,10.08
2022-11-13T16:05:29.880Z,10.05
2022-11-13T16:07:57.650Z,10.05
2022-11-13T16:10:25.517Z,10.07
2022-11-13T16:12:53.685Z,10.05
2022-11-13T16:15:21.538Z,10.10
2022-11-13T16:17:55.587Z,9.98
2022-11-13T16:20:22.960Z,9.89
2022-11-13T16:22:50.693Z,10.00
2022-11-13T16:25:22.574Z,9.86
2022-11-13T16:27:50.843Z,9.92
2022-11-13T16:30:24.000Z,10.06
2022-11-13T16:32:51.319Z,9.93
2022-11-13T16:35:20.680Z,9.96
2022-11-13T16:37:49.421Z,9.93
2022-11-13T16:40:24.495Z,9.89
2022-11-13T16:42:52.054Z,9.94
2022-11-13T16:45:20.941Z,9.82
2022-11-13T16:47:49.801Z,9.71
2022-11-13T16:50:28.239Z,9.82
2022-11-13T16:52:56.616Z,9.91
2022-11-13T16:55:24.439Z,9.76
2022-11-13T16:57:51.884Z,9.83
2022-11-13T17:00:20.497Z,9.83
2022-11-13T17:02:52.545Z,9.85
2022-11-13T17:05:23.509Z,9.72
2022-11-13T17:07:56.838Z,9.74
2022-11-13T17:10:31.352Z,9.67
2022-11-13T17:12:59.050Z,9.74
2022-11-13T17:15:26.314Z,9.84
2022-11-13T17:17:58.412Z,9.78
2022-11-13T17:20:25.957Z,9.68
2022-11-13T17:22:53.263Z,9.83
2022-11-13T17:25:23.259Z,9.74
2022-11-13T17:27:52.558Z,9.79
2022-11-13T17:30:23.419Z,9.68
2022-11-13T17:32:50.705Z,9.57
2022-11-13T17:35:17.963Z,9.65
2022-11-13T17:37:45.226Z,9.56
2022-11-13T17:40:12.689Z,9.63
2022-11-13T17:42:41.489Z,9.57
2022-11-13T17:45:09.626Z,9.45
2022-11-13T17:47:36.907Z,9.52
2022-11-13T17:50:07.641Z,9.55
2022-11-13T17:52:35.264Z,9.36
2022-11-13T17:55:05.952Z,9.40
2022-11-13T17:57:33.725Z,9.37
2022-11-13T18:00:02.712Z,9.34
2022-11-13T18:02:30.579Z,9.34
2022-11-13T18:04:59.169Z,9.17
2022-11-13T18:07:27.239Z,9.31
2022-11-13T18:09:54.547Z,9.19
2022-11-13T18:12:21.891Z,9.12
2022-11-13T18:14:52.418Z,9.04
2022-11-13T18:17:23.552Z,9.10
2022-11-13T18:19:54.834Z,9.14
2022-11-13T18:22:25.954Z,9.05
2022-11-13T18:24:55.976Z,9.07
2022-11-13T18:27:23.239Z,9.00
2022-11-13T18:29:50.707Z,8.98
2022-11-13T18:32:19.594Z,9.02
2022-11-13T18:34:46.859Z,8.97
2022-11-13T18:37:14.182Z,8.86
2022-11-13T18:39:41.460Z,8.90
2022-11-13T18:42:08.764Z,8.98
2022-11-13T18:44:36.750Z,8.93
2022-11-13T18:47:04.128Z,8.87
2022-11-13T18:49:31.607Z,8.92
2022-11-13T18:51:58.879Z,8.88
2022-11-13T18:54:28.539Z,8.81
2022-11-13T18:56:55.801Z,8.85
2022-11-13T18:59:23.135Z,8.90
2022-11-13T19:01:51.058Z,8.87
2022-11-13T19:04:23.190Z,8.80
2022-11-13T19:06:51.556Z,8.82
2022-11-13T19:09:20.769Z,8.88
2022-11-13T19:11:48.619Z,8.86
2022-11-13T19:14:18.310Z,8.86
2022-11-13T19:16:46.299Z,8.88
2022-11-13T19:19:22.479Z,8.74
2022-11-13T19:21:50.609Z,8.72
2022-11-13T19:24:18.152Z,8.74
2022-11-13T19:26:45.954Z,8.63
2022-11-13T19:29:13.865Z,8.64
2022-11-13T19:31:44.689Z,8.62
2022-11-13T19:34:13.288Z,8.53
2022-11-13T19:36:41.367Z,8.60
2022-11-13T19:39:09.753Z,8.51
2022-11-13T19:41:37.884Z,8.52
2022-11-13T19:44:06.522Z,8.46
2022-11-13T19:46:34.166Z,8.58
2022-11-13T19:49:01.546Z,8.46
2022-11-13T19:51:29.049Z,8.46
2022-11-13T19:53:59.750Z,8.48
2022-11-13T19:56:28.792Z,8.58
2022-11-13T19:58:57.020Z,8.51
2022-11-13T20:01:28.146Z,8.47
2022-11-13T20:04:02.671Z,8.43
2022-11-13T20:06:33.372Z,8.46
2022-11-13T20:09:03.306Z,8.44
2022-11-13T20:11:32.695Z,8.32
2022-11-13T20:14:00.215Z,8.37
2022-11-13T20:16:27.628Z,8.52
2022-11-13T20:18:58.059Z,8.46
2022-11-13T20:21:31.588Z,8.41
2022-11-13T20:24:00.705Z,8.33
2022-11-13T20:26:28.470Z,8.38
2022-11-13T20:28:55.775Z,8.41
2022-11-13T20:31:25.687Z,8.46
2022-11-13T20:33:57.223Z,8.32
2022-11-13T20:36:26.355Z,8.38
2022-11-13T20:38:57.364Z,8.35
2022-11-13T20:41:26.099Z,8.38
2022-11-13T20:43:56.293Z,8.33
2022-11-13T20:46:23.816Z,8.35
2022-11-13T20:48:51.095Z,8.43
2022-11-13T20:51:28.577Z,8.33
2022-11-13T20:53:56.597Z,8.38
2022-11-13T20:56:26.658Z,8.43
2022-11-13T20:58:54.424Z,8.38
2022-11-13T21:01:28.018Z,8.37
2022-11-13T21:03:56.107Z,8.35
2022-11-13T21:06:27.062Z,8.42
2022-11-13T21:08:56.310Z,8.35
2022-11-13T21:11:29.484Z,8.33
2022-11-13T21:13:58.233Z,8.31
2022-11-13T21:16:28.119Z,8.26
2022-11-13T21:18:58.954Z,8.23
2022-11-13T21:21:28.853Z,8.28
